sensor_id;sensor_type;location;lat;lon;timestamp;temperature;humidity
4183;DHT22;2105;52.300;9.182;2022-09-20T00:00:39;10.30;99.90
4183;DHT22;2105;52.300;9.182;2022-09-20T00:03:05;10.30;99.90
4183;DHT22;2105;52.300;9.182;2022-09-20T00:05:33;10.30;99.90
4183;DHT22;2105;52.300;9.182;2022-09-20T00:08:02;10.40;99.90
4183;DHT22;2105;52.300;9.182;2022-09-20T00:10:28;10.40;99.90
4183;DHT22;2105;52.300;9.182;2022-09-20T00:12:58;10.50;99.90
4183;DHT22;2105;52.300;9.182;2022-09-20T00:15:25;10.50;99.90
4183;DHT22;2105;52.300;9.182;2022-09-20T00:17:51;10.40;99.90
4183;DHT22;2105;52.300;9.182;2022-09-20T00:20:18;10.40;99.90
4183;DHT22;2105;52.300;9.182;2022-09-20T06:22:16;9.80;99.90
4183;DHT22;2105;52.300;9.182;2022-09-20T06:24:48;9.80;99.90
4183;DHT22;2105;52.300;9.182;2022-09-20T06:27:19;9.90;99.90
4183;DHT22;2105;52.300;9.182;2022-09-20T06:29:52;9.90;99.90
4183;DHT22;2105;52.300;9.182;2022-09-20T06:32:20;10.00;99.90
4183;DHT22;2105;52.300;9.182;2022-09-20T06:34:47;10.00;99.90
4183;DHT22;2105;52.300;9.182;2022-09-20T06:37:32;10.10;99.90
4183;DHT22;2105;52.300;9.182;2022-09-20T06:40:30;10.30;99.90
4183;DHT22;2105;52.300;9.182;2022-09-20T06:43:14;10.40;99.90
4183;DHT22;2105;52.300;9.182;2022-09-20T06:45:41;10.50;99.90
4183;DHT22;2105;52.300;9.182;2022-09-20T06:48:08;10.70;99.90
4183;DHT22;2105;52.300;9.182;2022-09-20T06:50:37;10.60;99.90
4183;DHT22;2105;52.300;9.182;2022-09-20T06:53:05;10.50;99.90
4183;DHT22;2105;52.300;9.182;2022-09-20T06:55:36;10.50;99.90
4183;DHT22;2105;52.300;9.182;2022-09-20T06:58:04;10.40;99.90
4183;DHT22;2105;52.300;9.182;2022-09-20T07:00:31;10.50;99.90
4183;DHT22;2105;52.300;9.182;2022-09-20T07:02:57;10.70;99.90
4183;DHT22;2105;52.300;9.182;2022-09-20T07:05:24;10.80;99.90
4183;DHT22;2105;52.300;9.182;2022-09-20T07:07:55;11.10;99.90
4183;DHT22;2105;52.300;9.182;2022-09-20T07:10:24;11.40;99.90
4183;DHT22;2105;52.300;9.182;2022-09-20T07:12:54;11.50;99.90
4183;DHT22;2105;52.300;9.182;2022-09-20T07:15:21;11.80;99.90
4183;DHT22;2105;52.300;9.182;2022-09-20T07:17:49;12.00;99.90
4183;DHT22;2105;52.300;9.182;2022-09-20T07:20:16;12.00;99.90
4183;DHT22;2105;52.300;9.182;2022-09-20T07:22:44;12.10;99.90
4183;DHT22;2105;52.300;9.182;2022-09-20T07:25:10;12.00;99.90
4183;DHT22;2105;52.300;9.182;2022-09-20T07:27:38;12.00;99.90
4183;DHT22;2105;52.300;9.182;2022-09-20T07:30:06;12.10;99.90
4183;DHT22;2105;52.300;9.182;2022-09-20T07:32:33;12.50;99.90
4183;DHT22;2105;52.300;9.182;2022-09-20T07:34:59;13.00;90.00
4183;DHT22;2105;52.300;9.182;2022-09-20T07:37:26;12.80;1.00
4183;DHT22;2105;52.300;9.182;2022-09-20T07:39:53;12.70;1.00
4183;DHT22;2105;52.300;9.182;2022-09-20T07:42:20;12.60;1.00
4183;DHT22;2105;52.300;9.182;2022-09-20T07:44:48;12.20;1.00
4183;DHT22;2105;52.300;9.182;2022-09-20T07:47:15;12.00;43.30
4183;DHT22;2105;52.300;9.182;2022-09-20T07:49:42;11.80;99.90
4183;DHT22;2105;52.300;9.182;2022-09-20T07:52:09;11.70;99.90
4183;DHT22;2105;52.300;9.182;2022-09-20T07:54:36;11.60;99.90
4183;DHT22;2105;52.300;9.182;2022-09-20T07:57:03;11.50;99.90
4183;DHT22;2105;52.300;9.182;2022-09-20T07:59:30;11.50;99.90
4183;DHT22;2105;52.300;9.182;2022-09-20T08:01:58;11.50;99.90
4183;DHT22;2105;52.300;9.182;2022-09-20T08:04:25;11.50;99.90
4183;DHT22;2105;52.300;9.182;2022-09-20T08:06:52;11.60;99.90
4183;DHT22;2105;52.300;9.182;2022-09-20T08:09:18;11.60;99.90
4183;DHT22;2105;52.300;9.182;2022-09-20T08:11:45;11.60;99.90
4183;DHT22;2105;52.300;9.182;2022-09-20T08:14:13;11.60;99.90
4183;DHT22;2105;52.300;9.182;2022-09-20T08:16:42;11.60;99.90
4183;DHT22;2105;52.300;9.182;2022-09-20T08:19:14;11.60;99.90
4183;DHT22;2105;52.300;9.182;2022-09-20T08:21:41;11.60;99.90
4183;DHT22;2105;52.300;9.182;2022-09-20T08:24:07;11.60;99.90
4183;DHT22;2105;52.300;9.182;2022-09-20T08:26:34;11.60;99.90
4183;DHT22;2105;52.300;9.182;2022-09-20T08:29:02;11.60;99.90
4183;DHT22;2105;52.300;9.182;2022-09-20T08:31:31;11.60;99.90
4183;DHT22;2105;52.300;9.182;2022-09-20T08:34:01;11.50;99.90
4183;DHT22;2105;52.300;9.182;2022-09-20T08:36:31;11.70;99.90
4183;DHT22;2105;52.300;9.182;2022-09-20T08:38:57;11.90;99.90
4183;DHT22;2105;52.300;9.182;2022-09-20T08:41:26;12.10;99.90
4183;DHT22;2105;52.300;9.182;2022-09-20T08:43:59;12.40;99.90
4183;DHT22;2105;52.300;9.182;2022-09-20T08:46:28;12.80;99.90
4183;DHT22;2105;52.300;9.182;2022-09-20T08:48:56;13.00;99.90
4183;DHT22;2105;52.300;9.182;2022-09-20T08:51:30;13.20;99.90
4183;DHT22;2105;52.300;9.182;2022-09-20T08:53:59;13.30;99.90
4183;DHT22;2105;52.300;9.182;2022-09-20T08:56:28;13.60;99.90
4183;DHT22;2105;52.300;9.182;2022-09-20T08:58:56;14.00;99.90
4183;DHT22;2105;52.300;9.182;2022-09-20T09:01:26;14.20;99.90
4183;DHT22;2105;52.300;9.182;2022-09-20T09:03:57;14.20;1.00
4183;DHT22;2105;52.300;9.182;2022-09-20T09:06:24;14.10;1.00
4183;DHT22;2105;52.300;9.182;2022-09-20T09:08:54;14.10;1.00
4183;DHT22;2105;52.300;9.182;2022-09-20T09:11:23;14.00;1.00
4183;DHT22;2105;52.300;9.182;2022-09-20T09:13:53;14.10;1.00
4183;DHT22;2105;52.300;9.182;2022-09-20T09:16:23;14.30;1.00
4183;DHT22;2105;52.300;9.182;2022-09-20T09:18:51;14.30;1.00
4183;DHT22;2105;52.300;9.182;2022-09-20T09:21:19;14.20;99.90
4183;DHT22;2105;52.300;9.182;2022-09-20T09:23:52;14.10;99.90
4183;DHT22;2105;52.300;9.182;2022-09-20T09:26:26;14.30;1.00
4183;DHT22;2105;52.300;9.182;2022-09-20T09:29:15;14.30;99.90
4183;DHT22;2105;52.300;9.182;2022-09-20T09:31:42;14.50;99.90
4183;DHT22;2105;52.300;9.182;2022-09-20T09:34:24;14.50;99.90
4183;DHT22;2105;52.300;9.182;2022-09-20T09:36:51;14.40;99.90
4183;DHT22;2105;52.300;9.182;2022-09-20T09:39:23;14.40;1.00
4183;DHT22;2105;52.300;9.182;2022-09-20T09:41:50;14.30;99.90
4183;DHT22;2105;52.300;9.182;2022-09-20T09:44:20;14.30;70.30
4183;DHT22;2105;52.300;9.182;2022-09-20T09:46:48;14.30;1.00
4183;DHT22;2105;52.300;9.182;2022-09-20T09:49:16;14.40;1.00
4183;DHT22;2105;52.300;9.182;2022-09-20T09:52:02;14.30;1.00
4183;DHT22;2105;52.300;9.182;2022-09-20T09:54:33;14.30;1.00
4183;DHT22;2105;52.300;9.182;2022-09-20T09:57:10;14.10;1.00
4183;DHT22;2105;52.300;9.182;2022-09-20T09:59:52;14.00;99.90
4183;DHT22;2105;52.300;9.182;2022-09-20T10:02:47;13.90;99.90
4183;DHT22;2105;52.300;9.182;2022-09-20T10:05:19;14.10;99.90
4183;DHT22;2105;52.300;9.182;2022-09-20T10:07:54;14.70;1.00
4183;DHT22;2105;52.300;9.182;2022-09-20T10:10:27;15.40;1.00
4183;DHT22;2105;52.300;9.182;2022-09-20T10:13:06;15.90;99.90
4183;DHT22;2105;52.300;9.182;2022-09-20T10:15:39;16.30;1.00
4183;DHT22;2105;52.300;9.182;2022-09-20T10:18:18;16.20;99.90
4183;DHT22;2105;52.300;9.182;2022-09-20T10:20:54;15.90;1.00
4183;DHT22;2105;52.300;9.182;2022-09-20T10:23:37;15.60;1.00
4183;DHT22;2105;52.300;9.182;2022-09-20T10:26:18;15.30;99.90
4183;DHT22;2105;52.300;9.182;2022-09-20T10:28:55;15.40;1.00
4183;DHT22;2105;52.300;9.182;2022-09-20T10:31:36;15.20;68.70
4183;DHT22;2105;52.300;9.182;2022-09-20T10:34:35;14.70;1.00
4183;DHT22;2105;52.300;9.182;2022-09-20T10:37:09;14.10;1.00
4183;DHT22;2105;52.300;9.182;2022-09-20T10:39:39;13.50;99.90
4183;DHT22;2105;52.300;9.182;2022-09-20T10:42:20;13.20;1.00
4183;DHT22;2105;52.300;9.182;2022-09-20T10:45:13;12.60;1.00
4183;DHT22;2105;52.300;9.182;2022-09-20T10:47:48;12.10;99.90
4183;DHT22;2105;52.300;9.182;2022-09-20T10:50:25;11.90;1.00
4183;DHT22;2105;52.300;9.182;2022-09-20T10:53:08;11.90;1.00
4183;DHT22;2105;52.300;9.182;2022-09-20T10:55:43;11.90;1.00
4183;DHT22;2105;52.300;9.182;2022-09-20T10:58:34;12.00;1.00
4183;DHT22;2105;52.300;9.182;2022-09-20T11:01:09;12.20;4.50
4183;DHT22;2105;52.300;9.182;2022-09-20T11:03:51;12.40;38.80
4183;DHT22;2105;52.300;9.182;2022-09-20T11:06:28;12.50;1.00
4183;DHT22;2105;52.300;9.182;2022-09-20T11:09:02;12.60;1.00
4183;DHT22;2105;52.300;9.182;2022-09-20T11:11:38;12.90;99.90
4183;DHT22;2105;52.300;9.182;2022-09-20T11:14:12;12.60;1.00
4183;DHT22;2105;52.300;9.182;2022-09-20T11:16:45;12.50;1.00
4183;DHT22;2105;52.300;9.182;2022-09-20T11:19:17;12.40;1.00
4183;DHT22;2105;52.300;9.182;2022-09-20T11:21:53;12.50;99.90
4183;DHT22;2105;52.300;9.182;2022-09-20T11:24:29;12.80;99.90
4183;DHT22;2105;52.300;9.182;2022-09-20T11:26:59;12.90;94.10
4183;DHT22;2105;52.300;9.182;2022-09-20T11:29:32;13.00;99.90
4183;DHT22;2105;52.300;9.182;2022-09-20T11:32:05;13.10;1.00
4183;DHT22;2105;52.300;9.182;2022-09-20T11:34:37;13.30;1.00
4183;DHT22;2105;52.300;9.182;2022-09-20T11:37:05;13.30;99.90
4183;DHT22;2105;52.300;9.182;2022-09-20T11:39:37;13.80;15.30
4183;DHT22;2105;52.300;9.182;2022-09-20T11:42:06;13.70;1.00
4183;DHT22;2105;52.300;9.182;2022-09-20T11:44:39;14.10;1.00
4183;DHT22;2105;52.300;9.182;2022-09-20T11:47:12;14.40;1.00
4183;DHT22;2105;52.300;9.182;2022-09-20T11:49:52;15.00;1.00
4183;DHT22;2105;52.300;9.182;2022-09-20T11:52:39;15.50;1.00
4183;DHT22;2105;52.300;9.182;2022-09-20T11:55:28;16.00;1.00
4183;DHT22;2105;52.300;9.182;2022-09-20T11:58:01;16.20;1.00
4183;DHT22;2105;52.300;9.182;2022-09-20T12:00:32;16.70;99.90
4183;DHT22;2105;52.300;9.182;2022-09-20T12:03:01;17.10;1.00
4183;DHT22;2105;52.300;9.182;2022-09-20T12:05:31;17.40;1.00
4183;DHT22;2105;52.300;9.182;2022-09-20T12:08:00;17.90;99.90
4183;DHT22;2105;52.300;9.182;2022-09-20T12:10:30;18.20;45.50
4183;DHT22;2105;52.300;9.182;2022-09-20T12:13:01;18.30;1.00
4183;DHT22;2105;52.300;9.182;2022-09-20T12:15:32;18.10;1.00
4183;DHT22;2105;52.300;9.182;2022-09-20T12:21:07;17.30;99.90
4183;DHT22;2105;52.300;9.182;2022-09-20T12:26:45;17.00;99.90
4183;DHT22;2105;52.300;9.182;2022-09-20T12:29:53;17.10;1.00
4183;DHT22;2105;52.300;9.182;2022-09-20T12:32:45;17.20;96.40
4183;DHT22;2105;52.300;9.182;2022-09-20T12:38:30;17.10;1.00
4183;DHT22;2105;52.300;9.182;2022-09-20T12:41:04;16.90;1.00
4183;DHT22;2105;52.300;9.182;2022-09-20T12:43:34;16.80;1.00
4183;DHT22;2105;52.300;9.182;2022-09-20T12:46:02;16.60;1.00
4183;DHT22;2105;52.300;9.182;2022-09-20T12:48:34;16.40;1.00
4183;DHT22;2105;52.300;9.182;2022-09-20T12:51:05;16.30;1.00
4183;DHT22;2105;52.300;9.182;2022-09-20T12:54:01;16.20;1.00
4183;DHT22;2105;52.300;9.182;2022-09-20T12:56:30;16.40;1.00
4183;DHT22;2105;52.300;9.182;2022-09-20T12:58:59;16.60;1.00
4183;DHT22;2105;52.300;9.182;2022-09-20T13:01:38;16.50;1.00
4183;DHT22;2105;52.300;9.182;2022-09-20T13:04:50;16.50;1.00
4183;DHT22;2105;52.300;9.182;2022-09-20T13:07:38;16.20;1.00
4183;DHT22;2105;52.300;9.182;2022-09-20T13:10:25;15.80;1.00
4183;DHT22;2105;52.300;9.182;2022-09-20T13:12:58;15.70;1.00
4183;DHT22;2105;52.300;9.182;2022-09-20T13:15:26;15.60;3.00
4183;DHT22;2105;52.300;9.182;2022-09-20T13:17:55;15.50;99.90
4183;DHT22;2105;52.300;9.182;2022-09-20T13:20:28;15.40;1.00
4183;DHT22;2105;52.300;9.182;2022-09-20T13:22:59;15.30;99.90
4183;DHT22;2105;52.300;9.182;2022-09-20T13:25:27;14.80;1.00
4183;DHT22;2105;52.300;9.182;2022-09-20T13:28:01;14.50;1.00
4183;DHT22;2105;52.300;9.182;2022-09-20T13:30:29;14.30;1.00
4183;DHT22;2105;52.300;9.182;2022-09-20T13:33:14;14.10;1.00
4183;DHT22;2105;52.300;9.182;2022-09-20T13:35:43;13.90;99.90
4183;DHT22;2105;52.300;9.182;2022-09-20T13:38:11;13.90;1.00
4183;DHT22;2105;52.300;9.182;2022-09-20T13:40:45;13.80;1.00
4183;DHT22;2105;52.300;9.182;2022-09-20T13:43:23;13.60;1.00
4183;DHT22;2105;52.300;9.182;2022-09-20T13:45:54;13.60;1.00
4183;DHT22;2105;52.300;9.182;2022-09-20T13:48:23;13.60;99.90
4183;DHT22;2105;52.300;9.182;2022-09-20T13:50:52;13.50;1.00
4183;DHT22;2105;52.300;9.182;2022-09-20T13:53:22;13.50;99.90
4183;DHT22;2105;52.300;9.182;2022-09-20T13:55:49;13.50;99.90
4183;DHT22;2105;52.300;9.182;2022-09-20T13:58:19;13.50;1.00
4183;DHT22;2105;52.300;9.182;2022-09-20T14:01:00;13.50;1.00
4183;DHT22;2105;52.300;9.182;2022-09-20T14:03:43;13.60;99.90
4183;DHT22;2105;52.300;9.182;2022-09-20T14:06:25;13.70;99.90
4183;DHT22;2105;52.300;9.182;2022-09-20T14:08:54;13.80;1.00
4183;DHT22;2105;52.300;9.182;2022-09-20T14:11:27;14.00;1.00
4183;DHT22;2105;52.300;9.182;2022-09-20T14:14:11;14.00;1.00
4183;DHT22;2105;52.300;9.182;2022-09-20T14:16:41;14.00;1.00
4183;DHT22;2105;52.300;9.182;2022-09-20T14:19:13;13.90;99.90
4183;DHT22;2105;52.300;9.182;2022-09-20T14:21:42;13.90;1.00
4183;DHT22;2105;52.300;9.182;2022-09-20T14:24:26;14.00;1.00
4183;DHT22;2105;52.300;9.182;2022-09-20T14:27:16;14.10;80.50
4183;DHT22;2105;52.300;9.182;2022-09-20T14:29:44;14.10;99.90
4183;DHT22;2105;52.300;9.182;2022-09-20T14:32:23;14.20;99.90
4183;DHT22;2105;52.300;9.182;2022-09-20T14:34:59;14.20;99.90
4183;DHT22;2105;52.300;9.182;2022-09-20T14:37:29;14.30;99.90
4183;DHT22;2105;52.300;9.182;2022-09-20T14:39:58;14.30;99.90
4183;DHT22;2105;52.300;9.182;2022-09-20T14:42:30;14.30;99.90
4183;DHT22;2105;52.300;9.182;2022-09-20T14:44:59;14.40;99.90
4183;DHT22;2105;52.300;9.182;2022-09-20T14:47:35;14.40;99.90
4183;DHT22;2105;52.300;9.182;2022-09-20T14:50:03;14.40;1.00
4183;DHT22;2105;52.300;9.182;2022-09-20T14:52:40;14.30;99.90
4183;DHT22;2105;52.300;9.182;2022-09-20T14:55:23;14.30;48.40
4183;DHT22;2105;52.300;9.182;2022-09-20T14:57:58;14.20;1.00
4183;DHT22;2105;52.300;9.182;2022-09-20T15:00:25;14.10;1.00
4183;DHT22;2105;52.300;9.182;2022-09-20T15:02:53;14.20;99.90
4183;DHT22;2105;52.300;9.182;2022-09-20T15:05:24;14.00;99.90
4183;DHT22;2105;52.300;9.182;2022-09-20T15:07:53;13.80;1.00
4183;DHT22;2105;52.300;9.182;2022-09-20T15:10:20;13.80;1.00
4183;DHT22;2105;52.300;9.182;2022-09-20T15:12:47;13.80;99.90
4183;DHT22;2105;52.300;9.182;2022-09-20T15:15:16;13.70;71.90
4183;DHT22;2105;52.300;9.182;2022-09-20T15:17:44;13.70;34.80
4183;DHT22;2105;52.300;9.182;2022-09-20T15:20:16;13.70;20.60
4183;DHT22;2105;52.300;9.182;2022-09-20T15:22:44;13.60;1.00
4183;DHT22;2105;52.300;9.182;2022-09-20T15:25:18;13.50;1.00
4183;DHT22;2105;52.300;9.182;2022-09-20T15:27:46;13.50;99.90
4183;DHT22;2105;52.300;9.182;2022-09-20T15:30:16;13.50;1.00
4183;DHT22;2105;52.300;9.182;2022-09-20T15:32:44;13.50;1.00
4183;DHT22;2105;52.300;9.182;2022-09-20T15:35:12;13.50;1.00
4183;DHT22;2105;52.300;9.182;2022-09-20T15:37:39;13.40;1.00
4183;DHT22;2105;52.300;9.182;2022-09-20T15:40:07;13.50;1.00
4183;DHT22;2105;52.300;9.182;2022-09-20T15:42:36;13.60;1.00
4183;DHT22;2105;52.300;9.182;2022-09-20T15:45:07;13.60;99.90
4183;DHT22;2105;52.300;9.182;2022-09-20T15:47:35;13.70;52.40
4183;DHT22;2105;52.300;9.182;2022-09-20T15:50:04;13.60;1.00
4183;DHT22;2105;52.300;9.182;2022-09-20T15:52:33;13.50;1.00
4183;DHT22;2105;52.300;9.182;2022-09-20T15:55:00;13.50;1.00
4183;DHT22;2105;52.300;9.182;2022-09-20T15:57:28;13.50;99.90
4183;DHT22;2105;52.300;9.182;2022-09-20T15:59:56;13.50;99.90
4183;DHT22;2105;52.300;9.182;2022-09-20T16:02:24;13.50;1.00
4183;DHT22;2105;52.300;9.182;2022-09-20T16:04:51;13.50;1.00
4183;DHT22;2105;52.300;9.182;2022-09-20T16:07:20;13.40;1.00
4183;DHT22;2105;52.300;9.182;2022-09-20T16:09:50;13.40;1.00
4183;DHT22;2105;52.300;9.182;2022-09-20T16:12:17;13.50;1.00
4183;DHT22;2105;52.300;9.182;2022-09-20T16:14:44;13.40;99.90
4183;DHT22;2105;52.300;9.182;2022-09-20T16:17:12;13.40;99.90
4183;DHT22;2105;52.300;9.182;2022-09-20T16:19:39;13.40;99.90
4183;DHT22;2105;52.300;9.182;2022-09-20T16:22:06;13.50;99.90
4183;DHT22;2105;52.300;9.182;2022-09-20T16:24:34;13.40;99.90
4183;DHT22;2105;52.300;9.182;2022-09-20T16:27:04;13.40;1.00
4183;DHT22;2105;52.300;9.182;2022-09-20T16:29:31;13.50;1.00
4183;DHT22;2105;52.300;9.182;2022-09-20T16:31:59;13.40;99.90
4183;DHT22;2105;52.300;9.182;2022-09-20T16:34:30;13.40;1.00
4183;DHT22;2105;52.300;9.182;2022-09-20T16:36:59;13.40;99.90
4183;DHT22;2105;52.300;9.182;2022-09-20T16:39:27;13.30;1.00
4183;DHT22;2105;52.300;9.182;2022-09-20T16:41:55;13.30;99.90
4183;DHT22;2105;52.300;9.182;2022-09-20T16:44:23;13.20;60.80
4183;DHT22;2105;52.300;9.182;2022-09-20T16:46:50;13.30;99.90
4183;DHT22;2105;52.300;9.182;2022-09-20T16:49:16;13.30;1.00
4183;DHT22;2105;52.300;9.182;2022-09-20T16:51:45;13.20;1.00
4183;DHT22;2105;52.300;9.182;2022-09-20T16:54:13;13.30;99.90
4183;DHT22;2105;52.300;9.182;2022-09-20T16:56:42;13.20;99.90
4183;DHT22;2105;52.300;9.182;2022-09-20T16:59:10;13.10;99.90
4183;DHT22;2105;52.300;9.182;2022-09-20T17:01:38;13.10;1.00
4183;DHT22;2105;52.300;9.182;2022-09-20T17:04:06;13.00;99.90
4183;DHT22;2105;52.300;9.182;2022-09-20T17:06:34;12.90;1.00
4183;DHT22;2105;52.300;9.182;2022-09-20T17:09:04;13.00;1.00
4183;DHT22;2105;52.300;9.182;2022-09-20T17:11:37;12.90;1.00
4183;DHT22;2105;52.300;9.182;2022-09-20T17:14:13;12.80;1.00
4183;DHT22;2105;52.300;9.182;2022-09-20T17:16:41;12.70;1.00
4183;DHT22;2105;52.300;9.182;2022-09-20T17:19:12;12.60;1.00
4183;DHT22;2105;52.300;9.182;2022-09-20T17:21:50;12.50;92.60
4183;DHT22;2105;52.300;9.182;2022-09-20T18:23:29;11.00;99.90
4183;DHT22;2105;52.300;9.182;2022-09-20T18:25:56;10.90;99.90
4183;DHT22;2105;52.300;9.182;2022-09-20T18:28:40;10.80;99.90
4183;DHT22;2105;52.300;9.182;2022-09-20T18:31:07;10.90;99.90
4183;DHT22;2105;52.300;9.182;2022-09-20T18:33:34;10.90;99.90
4183;DHT22;2105;52.300;9.182;2022-09-20T18:36:02;10.90;99.90
4183;DHT22;2105;52.300;9.182;2022-09-20T18:38:31;11.00;99.90
4183;DHT22;2105;52.300;9.182;2022-09-20T18:40:59;11.00;99.90
4183;DHT22;2105;52.300;9.182;2022-09-20T18:43:26;11.10;99.90
4183;DHT22;2105;52.300;9.182;2022-09-20T18:45:54;11.00;99.90
4183;DHT22;2105;52.300;9.182;2022-09-20T18:48:22;10.90;99.90
4183;DHT22;2105;52.300;9.182;2022-09-20T18:50:57;10.80;99.90
4183;DHT22;2105;52.300;9.182;2022-09-20T18:53:25;10.80;99.90
4183;DHT22;2105;52.300;9.182;2022-09-20T18:55:53;10.70;99.90
4183;DHT22;2105;52.300;9.182;2022-09-20T18:58:22;10.70;99.90
4183;DHT22;2105;52.300;9.182;2022-09-20T19:00:57;10.70;99.90
4183;DHT22;2105;52.300;9.182;2022-09-20T19:03:30;10.60;99.90
4183;DHT22;2105;52.300;9.182;2022-09-20T19:06:02;10.60;99.90
4183;DHT22;2105;52.300;9.182;2022-09-20T19:08:35;10.60;99.90
4183;DHT22;2105;52.300;9.182;2022-09-20T19:11:10;10.40;99.90
4183;DHT22;2105;52.300;9.182;2022-09-20T19:13:42;10.50;99.90
4183;DHT22;2105;52.300;9.182;2022-09-20T19:16:16;10.50;99.90
4183;DHT22;2105;52.300;9.182;2022-09-20T19:18:55;10.40;99.90
4183;DHT22;2105;52.300;9.182;2022-09-20T19:21:30;10.40;99.90
4183;DHT22;2105;52.300;9.182;2022-09-20T19:24:07;10.40;99.90
4183;DHT22;2105;52.300;9.182;2022-09-20T19:26:38;10.50;99.90
4183;DHT22;2105;52.300;9.182;2022-09-20T19:29:11;10.50;99.90
4183;DHT22;2105;52.300;9.182;2022-09-20T19:31:40;10.50;99.90
4183;DHT22;2105;52.300;9.182;2022-09-20T19:34:14;10.60;99.90
4183;DHT22;2105;52.300;9.182;2022-09-20T19:36:48;10.50;99.90
4183;DHT22;2105;52.300;9.182;2022-09-20T19:39:26;10.40;99.90
4183;DHT22;2105;52.300;9.182;2022-09-20T19:42:05;10.40;99.90
4183;DHT22;2105;52.300;9.182;2022-09-20T19:44:46;10.40;99.90
4183;DHT22;2105;52.300;9.182;2022-09-20T19:47:23;10.30;99.90
4183;DHT22;2105;52.300;9.182;2022-09-20T19:49:57;10.30;99.90
4183;DHT22;2105;52.300;9.182;2022-09-20T19:52:28;10.30;99.90
4183;DHT22;2105;52.300;9.182;2022-09-20T19:54:55;10.20;99.90
4183;DHT22;2105;52.300;9.182;2022-09-20T19:57:31;10.20;99.90
4183;DHT22;2105;52.300;9.182;2022-09-20T20:00:01;10.20;99.90
4183;DHT22;2105;52.300;9.182;2022-09-20T20:02:28;10.20;99.90
4183;DHT22;2105;52.300;9.182;2022-09-20T20:04:55;10.10;99.90
4183;DHT22;2105;52.300;9.182;2022-09-20T20:07:28;9.90;99.90
4183;DHT22;2105;52.300;9.182;2022-09-20T20:10:02;9.90;99.90
4183;DHT22;2105;52.300;9.182;2022-09-20T20:12:35;9.80;99.90
4183;DHT22;2105;52.300;9.182;2022-09-20T20:15:12;9.80;99.90
4183;DHT22;2105;52.300;9.182;2022-09-20T20:17:47;9.80;99.90
4183;DHT22;2105;52.300;9.182;2022-09-20T20:20:21;9.90;99.90
4183;DHT22;2105;52.300;9.182;2022-09-20T20:23:06;9.90;99.90
4183;DHT22;2105;52.300;9.182;2022-09-20T20:25:41;9.90;99.90
4183;DHT22;2105;52.300;9.182;2022-09-20T20:28:10;9.70;99.90
4183;DHT22;2105;52.300;9.182;2022-09-20T20:30:37;9.60;99.90
4183;DHT22;2105;52.300;9.182;2022-09-20T20:33:04;9.50;99.90
4183;DHT22;2105;52.300;9.182;2022-09-20T20:35:31;9.40;99.90
4183;DHT22;2105;52.300;9.182;2022-09-20T20:37:58;9.30;99.90
4183;DHT22;2105;52.300;9.182;2022-09-20T20:40:25;9.30;99.90
4183;DHT22;2105;52.300;9.182;2022-09-20T20:42:55;9.20;99.90
4183;DHT22;2105;52.300;9.182;2022-09-20T20:45:25;9.30;99.90
4183;DHT22;2105;52.300;9.182;2022-09-20T20:47:55;9.20;99.90
4183;DHT22;2105;52.300;9.182;2022-09-20T20:50:23;9.30;99.90
4183;DHT22;2105;52.300;9.182;2022-09-20T20:52:51;9.30;99.90
4183;DHT22;2105;52.300;9.182;2022-09-20T20:55:17;9.40;99.90
4183;DHT22;2105;52.300;9.182;2022-09-20T20:57:50;9.40;99.90
4183;DHT22;2105;52.300;9.182;2022-09-20T21:00:18;9.40;99.90
4183;DHT22;2105;52.300;9.182;2022-09-20T21:02:46;9.50;99.90
4183;DHT22;2105;52.300;9.182;2022-09-20T21:05:13;9.50;99.90
4183;DHT22;2105;52.300;9.182;2022-09-20T21:07:40;9.60;99.90
4183;DHT22;2105;52.300;9.182;2022-09-20T21:10:07;9.50;99.90
4183;DHT22;2105;52.300;9.182;2022-09-20T21:12:34;9.40;99.90
4183;DHT22;2105;52.300;9.182;2022-09-20T21:15:00;9.20;99.90
4183;DHT22;2105;52.300;9.182;2022-09-20T21:17:27;9.20;99.90
4183;DHT22;2105;52.300;9.182;2022-09-20T21:19:55;9.30;99.90
4183;DHT22;2105;52.300;9.182;2022-09-20T21:22:22;9.30;99.90
4183;DHT22;2105;52.300;9.182;2022-09-20T21:24:48;9.40;99.90
4183;DHT22;2105;52.300;9.182;2022-09-20T21:27:15;9.50;99.90
4183;DHT22;2105;52.300;9.182;2022-09-20T21:29:41;9.60;99.90
4183;DHT22;2105;52.300;9.182;2022-09-20T21:32:08;9.60;99.90
4183;DHT22;2105;52.300;9.182;2022-09-20T21:34:35;9.60;99.90
4183;DHT22;2105;52.300;9.182;2022-09-20T21:37:03;9.70;99.90
4183;DHT22;2105;52.300;9.182;2022-09-20T21:39:29;9.70;99.90
4183;DHT22;2105;52.300;9.182;2022-09-20T21:41:56;9.70;99.90
4183;DHT22;2105;52.300;9.182;2022-09-20T21:44:23;9.80;99.90
4183;DHT22;2105;52.300;9.182;2022-09-20T21:46:50;9.70;99.90
4183;DHT22;2105;52.300;9.182;2022-09-20T21:49:16;9.70;99.90
4183;DHT22;2105;52.300;9.182;2022-09-20T21:51:43;9.70;99.90
4183;DHT22;2105;52.300;9.182;2022-09-20T21:54:11;9.50;99.90
4183;DHT22;2105;52.300;9.182;2022-09-20T21:56:38;9.50;99.90
4183;DHT22;2105;52.300;9.182;2022-09-20T21:59:05;9.40;99.90
4183;DHT22;2105;52.300;9.182;2022-09-20T22:01:34;9.30;99.90
4183;DHT22;2105;52.300;9.182;2022-09-20T22:04:04;9.20;99.90
4183;DHT22;2105;52.300;9.182;2022-09-20T22:06:32;9.20;99.90
4183;DHT22;2105;52.300;9.182;2022-09-20T22:09:01;9.10;99.90
4183;DHT22;2105;52.300;9.182;2022-09-20T22:11:31;9.10;99.90
4183;DHT22;2105;52.300;9.182;2022-09-20T22:13:58;9.10;99.90
4183;DHT22;2105;52.300;9.182;2022-09-20T22:16:26;9.10;99.90
4183;DHT22;2105;52.300;9.182;2022-09-20T22:18:53;9.00;99.90
4183;DHT22;2105;52.300;9.182;2022-09-20T22:21:21;9.00;99.90
4183;DHT22;2105;52.300;9.182;2022-09-20T22:23:51;9.00;99.90
4183;DHT22;2105;52.300;9.182;2022-09-20T22:26:19;9.00;99.90
4183;DHT22;2105;52.300;9.182;2022-09-20T22:28:47;8.90;99.90
4183;DHT22;2105;52.300;9.182;2022-09-20T22:31:17;8.90;99.90
4183;DHT22;2105;52.300;9.182;2022-09-20T22:33:46;8.90;99.90
4183;DHT22;2105;52.300;9.182;2022-09-20T22:36:15;8.90;99.90
4183;DHT22;2105;52.300;9.182;2022-09-20T22:38:42;9.00;99.90
4183;DHT22;2105;52.300;9.182;2022-09-20T22:41:10;9.10;99.90
4183;DHT22;2105;52.300;9.182;2022-09-20T22:43:36;9.10;99.90
4183;DHT22;2105;52.300;9.182;2022-09-20T22:46:06;9.00;99.90
4183;DHT22;2105;52.300;9.182;2022-09-20T22:48:34;9.10;99.90
4183;DHT22;2105;52.300;9.182;2022-09-20T22:51:02;9.00;99.90
4183;DHT22;2105;52.300;9.182;2022-09-20T22:53:30;9.10;99.90
4183;DHT22;2105;52.300;9.182;2022-09-20T22:56:07;9.10;99.90
4183;DHT22;2105;52.300;9.182;2022-09-20T22:58:35;9.20;99.90
4183;DHT22;2105;52.300;9.182;2022-09-20T23:01:09;9.00;99.90
4183;DHT22;2105;52.300;9.182;2022-09-20T23:03:36;8.90;99.90
4183;DHT22;2105;52.300;9.182;2022-09-20T23:06:09;8.80;99.90
4183;DHT22;2105;52.300;9.182;2022-09-20T23:08:36;8.70;99.90
4183;DHT22;2105;52.300;9.182;2022-09-20T23:11:04;8.60;99.90
4183;DHT22;2105;52.300;9.182;2022-09-20T23:13:31;8.50;99.90
4183;DHT22;2105;52.300;9.182;2022-09-20T23:15:58;8.60;99.90
4183;DHT22;2105;52.300;9.182;2022-09-20T23:18:25;8.60;99.90
4183;DHT22;2105;52.300;9.182;2022-09-20T23:20:59;8.50;99.90
4183;DHT22;2105;52.300;9.182;2022-09-20T23:23:26;8.50;99.90
4183;DHT22;2105;52.300;9.182;2022-09-20T23:25:53;8.50;99.90
4183;DHT22;2105;52.300;9.182;2022-09-20T23:28:20;8.40;99.90
4183;DHT22;2105;52.300;9.182;2022-09-20T23:30:47;8.40;99.90
4183;DHT22;2105;52.300;9.182;2022-09-20T23:33:14;8.40;99.90
4183;DHT22;2105;52.300;9.182;2022-09-20T23:35:45;8.50;99.90
4183;DHT22;2105;52.300;9.182;2022-09-20T23:38:12;8.50;99.90
4183;DHT22;2105;52.300;9.182;2022-09-20T23:40:39;8.50;99.90
4183;DHT22;2105;52.300;9.182;2022-09-20T23:43:05;8.50;99.90